sensor_id;sensor_type;location;lat;lon;timestamp;P1;durP1;ratioP1;P2;durP2;ratioP2
15104;SDS011;7653;48.994;9.212;2022-08-14T00:00:41;5.37;;;2.60;;
15104;SDS011;7653;48.994;9.212;2022-08-14T00:03:07;8.30;;;2.33;;
15104;SDS011;7653;48.994;9.212;2022-08-14T00:05:45;5.93;;;2.30;;
15104;SDS011;7653;48.994;9.212;2022-08-14T00:08:24;3.20;;;2.20;;
15104;SDS011;7653;48.994;9.212;2022-08-14T00:10:50;4.33;;;2.10;;
15104;SDS011;7653;48.994;9.212;2022-08-14T00:13:17;2.40;;;2.20;;
15104;SDS011;7653;48.994;9.212;2022-08-14T00:15:48;3.13;;;2.10;;
15104;SDS011;7653;48.994;9.212;2022-08-14T00:18:17;2.73;;;2.47;;
15104;SDS011;7653;48.994;9.212;2022-08-14T00:20:45;2.33;;;2.13;;
15104;SDS011;7653;48.994;9.212;2022-08-14T00:23:12;3.07;;;2.20;;
15104;SDS011;7653;48.994;9.212;2022-08-14T00:25:39;4.10;;;2.20;;
15104;SDS011;7653;48.994;9.212;2022-08-14T00:28:07;2.33;;;2.13;;
15104;SDS011;7653;48.994;9.212;2022-08-14T00:30:34;2.13;;;2.03;;
15104;SDS011;7653;48.994;9.212;2022-08-14T00:33:04;2.30;;;2.10;;
15104;SDS011;7653;48.994;9.212;2022-08-14T00:35:29;4.73;;;2.50;;
15104;SDS011;7653;48.994;9.212;2022-08-14T00:37:56;3.07;;;2.20;;
15104;SDS011;7653;48.994;9.212;2022-08-14T00:40:22;2.40;;;2.20;;
15104;SDS011;7653;48.994;9.212;2022-08-14T00:42:48;3.93;;;2.30;;
15104;SDS011;7653;48.994;9.212;2022-08-14T00:45:17;3.07;;;2.33;;
15104;SDS011;7653;48.994;9.212;2022-08-14T00:47:44;2.43;;;2.20;;
15104;SDS011;7653;48.994;9.212;2022-08-14T00:50:13;2.60;;;2.40;;
15104;SDS011;7653;48.994;9.212;2022-08-14T00:53:01;2.87;;;2.40;;
15104;SDS011;7653;48.994;9.212;2022-08-14T00:55:32;2.67;;;2.47;;
15104;SDS011;7653;48.994;9.212;2022-08-14T00:58:17;2.47;;;2.27;;
15104;SDS011;7653;48.994;9.212;2022-08-14T01:01:00;3.33;;;2.60;;
15104;SDS011;7653;48.994;9.212;2022-08-14T01:03:34;2.80;;;2.30;;
15104;SDS011;7653;48.994;9.212;2022-08-14T01:06:13;4.37;;;2.97;;
15104;SDS011;7653;48.994;9.212;2022-08-14T01:08:41;2.53;;;2.33;;
15104;SDS011;7653;48.994;9.212;2022-08-14T01:11:08;2.83;;;2.57;;
15104;SDS011;7653;48.994;9.212;2022-08-14T01:13:44;3.13;;;2.30;;
15104;SDS011;7653;48.994;9.212;2022-08-14T01:16:15;3.27;;;2.40;;
15104;SDS011;7653;48.994;9.212;2022-08-14T01:18:41;2.43;;;2.20;;
15104;SDS011;7653;48.994;9.212;2022-08-14T01:23:58;2.73;;;2.17;;
15104;SDS011;7653;48.994;9.212;2022-08-14T01:26:24;2.73;;;2.50;;
15104;SDS011;7653;48.994;9.212;2022-08-14T01:28:53;3.17;;;2.93;;
15104;SDS011;7653;48.994;9.212;2022-08-14T01:31:20;2.93;;;2.67;;
15104;SDS011;7653;48.994;9.212;2022-08-14T01:33:48;2.93;;;2.40;;
15104;SDS011;7653;48.994;9.212;2022-08-14T01:36:15;2.70;;;2.43;;
15104;SDS011;7653;48.994;9.212;2022-08-14T01:38:45;3.00;;;2.70;;
15104;SDS011;7653;48.994;9.212;2022-08-14T01:41:14;3.23;;;2.60;;
15104;SDS011;7653;48.994;9.212;2022-08-14T01:43:46;9.10;;;2.70;;
15104;SDS011;7653;48.994;9.212;2022-08-14T01:46:13;3.23;;;2.93;;
15104;SDS011;7653;48.994;9.212;2022-08-14T01:48:45;6.13;;;3.00;;
15104;SDS011;7653;48.994;9.212;2022-08-14T01:51:16;2.70;;;2.50;;
15104;SDS011;7653;48.994;9.212;2022-08-14T01:53:46;3.37;;;2.57;;
15104;SDS011;7653;48.994;9.212;2022-08-14T01:56:22;2.97;;;2.77;;
15104;SDS011;7653;48.994;9.212;2022-08-14T01:59:46;3.07;;;2.70;;
15104;SDS011;7653;48.994;9.212;2022-08-14T02:02:04;2.87;;;2.57;;
15104;SDS011;7653;48.994;9.212;2022-08-14T02:04:36;3.87;;;2.60;;
15104;SDS011;7653;48.994;9.212;2022-08-14T02:07:03;2.70;;;2.50;;
15104;SDS011;7653;48.994;9.212;2022-08-14T02:09:30;4.13;;;2.27;;
15104;SDS011;7653;48.994;9.212;2022-08-14T02:12:14;2.60;;;2.40;;
15104;SDS011;7653;48.994;9.212;2022-08-14T02:14:51;2.60;;;2.40;;
15104;SDS011;7653;48.994;9.212;2022-08-14T02:17:27;3.40;;;2.57;;
15104;SDS011;7653;48.994;9.212;2022-08-14T02:19:53;6.07;;;2.60;;
15104;SDS011;7653;48.994;9.212;2022-08-14T02:22:19;3.00;;;2.80;;
15104;SDS011;7653;48.994;9.212;2022-08-14T02:25:00;3.20;;;2.73;;
15104;SDS011;7653;48.994;9.212;2022-08-14T02:27:43;2.80;;;2.60;;
15104;SDS011;7653;48.994;9.212;2022-08-14T02:30:10;3.77;;;3.00;;
15104;SDS011;7653;48.994;9.212;2022-08-14T02:32:48;3.30;;;3.00;;
15104;SDS011;7653;48.994;9.212;2022-08-14T02:35:14;5.70;;;2.70;;
15104;SDS011;7653;48.994;9.212;2022-08-14T02:37:42;4.37;;;2.70;;
15104;SDS011;7653;48.994;9.212;2022-08-14T02:40:09;3.27;;;2.80;;
15104;SDS011;7653;48.994;9.212;2022-08-14T02:42:37;3.07;;;2.50;;
15104;SDS011;7653;48.994;9.212;2022-08-14T02:45:08;3.07;;;2.77;;
15104;SDS011;7653;48.994;9.212;2022-08-14T02:47:38;3.97;;;2.93;;
15104;SDS011;7653;48.994;9.212;2022-08-14T02:50:22;6.40;;;3.20;;
15104;SDS011;7653;48.994;9.212;2022-08-14T02:52:50;7.03;;;3.33;;
15104;SDS011;7653;48.994;9.212;2022-08-14T02:55:19;8.77;;;3.17;;
15104;SDS011;7653;48.994;9.212;2022-08-14T02:57:46;4.63;;;3.20;;
15104;SDS011;7653;48.994;9.212;2022-08-14T03:00:18;7.17;;;3.20;;
15104;SDS011;7653;48.994;9.212;2022-08-14T03:02:45;3.60;;;2.70;;
15104;SDS011;7653;48.994;9.212;2022-08-14T03:05:11;6.63;;;3.67;;
15104;SDS011;7653;48.994;9.212;2022-08-14T03:07:45;6.70;;;3.30;;
15104;SDS011;7653;48.994;9.212;2022-08-14T03:10:13;9.37;;;3.83;;
15104;SDS011;7653;48.994;9.212;2022-08-14T03:13:02;6.47;;;3.07;;
15104;SDS011;7653;48.994;9.212;2022-08-14T03:15:35;6.20;;;3.23;;
15104;SDS011;7653;48.994;9.212;2022-08-14T03:18:08;3.77;;;2.87;;
15104;SDS011;7653;48.994;9.212;2022-08-14T03:20:34;6.70;;;3.03;;
15104;SDS011;7653;48.994;9.212;2022-08-14T03:23:02;6.10;;;3.00;;
15104;SDS011;7653;48.994;9.212;2022-08-14T03:25:27;3.53;;;2.93;;
15104;SDS011;7653;48.994;9.212;2022-08-14T03:27:57;7.93;;;3.00;;
15104;SDS011;7653;48.994;9.212;2022-08-14T03:30:30;6.20;;;3.60;;
15104;SDS011;7653;48.994;9.212;2022-08-14T03:33:14;5.00;;;2.90;;
15104;SDS011;7653;48.994;9.212;2022-08-14T03:35:51;6.67;;;3.27;;
15104;SDS011;7653;48.994;9.212;2022-08-14T03:38:19;4.63;;;3.20;;
15104;SDS011;7653;48.994;9.212;2022-08-14T03:41:10;7.07;;;3.30;;
15104;SDS011;7653;48.994;9.212;2022-08-14T03:43:39;7.53;;;3.17;;
15104;SDS011;7653;48.994;9.212;2022-08-14T03:46:05;3.67;;;3.10;;
15104;SDS011;7653;48.994;9.212;2022-08-14T03:48:31;6.80;;;3.23;;
15104;SDS011;7653;48.994;9.212;2022-08-14T03:50:56;3.40;;;3.10;;
15104;SDS011;7653;48.994;9.212;2022-08-14T03:53:23;4.57;;;3.60;;
15104;SDS011;7653;48.994;9.212;2022-08-14T03:55:49;4.17;;;3.13;;
15104;SDS011;7653;48.994;9.212;2022-08-14T03:58:15;3.53;;;3.20;;
15104;SDS011;7653;48.994;9.212;2022-08-14T04:00:41;3.83;;;3.53;;
15104;SDS011;7653;48.994;9.212;2022-08-14T04:03:10;3.80;;;3.17;;
15104;SDS011;7653;48.994;9.212;2022-08-14T04:05:37;4.67;;;3.23;;
15104;SDS011;7653;48.994;9.212;2022-08-14T04:08:03;3.83;;;3.20;;
15104;SDS011;7653;48.994;9.212;2022-08-14T04:10:32;4.03;;;3.07;;
15104;SDS011;7653;48.994;9.212;2022-08-14T04:13:02;3.67;;;3.20;;
15104;SDS011;7653;48.994;9.212;2022-08-14T04:18:08;5.43;;;3.40;;
15104;SDS011;7653;48.994;9.212;2022-08-14T04:20:46;4.50;;;3.40;;
15104;SDS011;7653;48.994;9.212;2022-08-14T04:23:13;3.90;;;3.60;;
15104;SDS011;7653;48.994;9.212;2022-08-14T04:25:51;3.57;;;3.27;;
15104;SDS011;7653;48.994;9.212;2022-08-14T04:28:19;3.50;;;3.20;;
15104;SDS011;7653;48.994;9.212;2022-08-14T04:30:45;4.50;;;4.10;;
15104;SDS011;7653;48.994;9.212;2022-08-14T04:33:11;5.50;;;3.60;;
15104;SDS011;7653;48.994;9.212;2022-08-14T04:35:38;4.07;;;3.60;;
15104;SDS011;7653;48.994;9.212;2022-08-14T04:38:05;3.57;;;3.20;;
15104;SDS011;7653;48.994;9.212;2022-08-14T04:40:50;3.90;;;3.50;;
15104;SDS011;7653;48.994;9.212;2022-08-14T04:43:34;3.63;;;3.33;;
15104;SDS011;7653;48.994;9.212;2022-08-14T04:46:01;3.60;;;3.30;;
15104;SDS011;7653;48.994;9.212;2022-08-14T04:48:27;3.90;;;3.43;;
15104;SDS011;7653;48.994;9.212;2022-08-14T04:50:53;3.80;;;3.20;;
15104;SDS011;7653;48.994;9.212;2022-08-14T04:53:24;4.33;;;3.60;;
15104;SDS011;7653;48.994;9.212;2022-08-14T04:56:04;3.47;;;3.10;;
15104;SDS011;7653;48.994;9.212;2022-08-14T04:58:35;3.73;;;3.43;;
15104;SDS011;7653;48.994;9.212;2022-08-14T05:01:04;4.70;;;3.50;;
15104;SDS011;7653;48.994;9.212;2022-08-14T05:03:32;4.00;;;3.57;;
15104;SDS011;7653;48.994;9.212;2022-08-14T05:06:06;3.60;;;3.30;;
15104;SDS011;7653;48.994;9.212;2022-08-14T05:08:35;4.37;;;3.97;;
15104;SDS011;7653;48.994;9.212;2022-08-14T05:11:02;4.23;;;3.33;;
15104;SDS011;7653;48.994;9.212;2022-08-14T05:13:32;3.57;;;3.27;;
15104;SDS011;7653;48.994;9.212;2022-08-14T05:16:01;4.80;;;3.33;;
15104;SDS011;7653;48.994;9.212;2022-08-14T05:18:28;4.47;;;3.70;;
15104;SDS011;7653;48.994;9.212;2022-08-14T05:21:05;3.93;;;3.53;;
15104;SDS011;7653;48.994;9.212;2022-08-14T05:23:32;3.80;;;3.47;;
15104;SDS011;7653;48.994;9.212;2022-08-14T05:25:59;3.93;;;3.40;;
15104;SDS011;7653;48.994;9.212;2022-08-14T05:28:35;3.90;;;3.50;;
15104;SDS011;7653;48.994;9.212;2022-08-14T05:31:02;4.27;;;3.40;;
15104;SDS011;7653;48.994;9.212;2022-08-14T05:33:32;3.60;;;3.30;;
15104;SDS011;7653;48.994;9.212;2022-08-14T05:36:00;4.30;;;3.37;;
15104;SDS011;7653;48.994;9.212;2022-08-14T05:38:36;4.30;;;3.60;;
15104;SDS011;7653;48.994;9.212;2022-08-14T05:41:05;3.43;;;3.23;;
15104;SDS011;7653;48.994;9.212;2022-08-14T05:43:33;4.47;;;3.10;;
15104;SDS011;7653;48.994;9.212;2022-08-14T05:45:59;4.43;;;3.00;;
15104;SDS011;7653;48.994;9.212;2022-08-14T05:48:30;3.87;;;3.10;;
15104;SDS011;7653;48.994;9.212;2022-08-14T05:51:02;4.60;;;3.20;;
15104;SDS011;7653;48.994;9.212;2022-08-14T05:53:28;3.40;;;3.10;;
15104;SDS011;7653;48.994;9.212;2022-08-14T05:56:00;4.00;;;3.27;;
15104;SDS011;7653;48.994;9.212;2022-08-14T05:58:26;3.63;;;3.33;;
15104;SDS011;7653;48.994;9.212;2022-08-14T06:00:52;3.87;;;3.40;;
15104;SDS011;7653;48.994;9.212;2022-08-14T06:03:19;4.10;;;3.80;;
15104;SDS011;7653;48.994;9.212;2022-08-14T06:05:47;3.80;;;3.50;;
15104;SDS011;7653;48.994;9.212;2022-08-14T06:10:49;3.37;;;3.03;;
15104;SDS011;7653;48.994;9.212;2022-08-14T06:13:20;4.47;;;3.27;;
15104;SDS011;7653;48.994;9.212;2022-08-14T06:15:47;3.50;;;2.73;;
15104;SDS011;7653;48.994;9.212;2022-08-14T06:18:16;3.50;;;3.20;;
15104;SDS011;7653;48.994;9.212;2022-08-14T06:20:44;4.73;;;3.37;;
15104;SDS011;7653;48.994;9.212;2022-08-14T06:23:12;3.60;;;3.20;;
15104;SDS011;7653;48.994;9.212;2022-08-14T06:25:40;3.40;;;3.10;;
15104;SDS011;7653;48.994;9.212;2022-08-14T06:28:06;4.33;;;3.30;;
15104;SDS011;7653;48.994;9.212;2022-08-14T06:30:40;3.40;;;3.10;;
15104;SDS011;7653;48.994;9.212;2022-08-14T06:33:06;3.13;;;2.90;;
15104;SDS011;7653;48.994;9.212;2022-08-14T06:35:32;5.40;;;3.17;;
15104;SDS011;7653;48.994;9.212;2022-08-14T06:37:58;4.03;;;3.37;;
15104;SDS011;7653;48.994;9.212;2022-08-14T06:40:29;4.60;;;3.10;;
15104;SDS011;7653;48.994;9.212;2022-08-14T06:42:58;3.70;;;2.90;;
15104;SDS011;7653;48.994;9.212;2022-08-14T06:45:26;4.50;;;3.10;;
15104;SDS011;7653;48.994;9.212;2022-08-14T06:47:53;3.50;;;3.20;;
15104;SDS011;7653;48.994;9.212;2022-08-14T06:50:24;3.40;;;3.10;;
15104;SDS011;7653;48.994;9.212;2022-08-14T06:53:04;3.60;;;3.30;;
15104;SDS011;7653;48.994;9.212;2022-08-14T06:55:44;4.77;;;3.00;;
15104;SDS011;7653;48.994;9.212;2022-08-14T06:58:11;4.30;;;3.27;;
15104;SDS011;7653;48.994;9.212;2022-08-14T07:00:39;3.23;;;3.00;;
15104;SDS011;7653;48.994;9.212;2022-08-14T07:03:25;4.23;;;3.30;;
15104;SDS011;7653;48.994;9.212;2022-08-14T07:06:13;3.27;;;2.97;;
15104;SDS011;7653;48.994;9.212;2022-08-14T07:08:39;3.77;;;2.90;;
15104;SDS011;7653;48.994;9.212;2022-08-14T07:11:04;4.17;;;3.50;;
15104;SDS011;7653;48.994;9.212;2022-08-14T07:13:30;4.13;;;3.00;;
15104;SDS011;7653;48.994;9.212;2022-08-14T07:15:56;5.83;;;3.23;;
15104;SDS011;7653;48.994;9.212;2022-08-14T07:18:23;7.67;;;3.30;;
15104;SDS011;7653;48.994;9.212;2022-08-14T07:20:53;4.67;;;2.97;;
15104;SDS011;7653;48.994;9.212;2022-08-14T07:23:20;4.97;;;3.30;;
15104;SDS011;7653;48.994;9.212;2022-08-14T07:26:07;3.57;;;3.27;;
15104;SDS011;7653;48.994;9.212;2022-08-14T07:28:35;3.40;;;3.10;;
15104;SDS011;7653;48.994;9.212;2022-08-14T07:31:04;3.73;;;2.97;;
15104;SDS011;7653;48.994;9.212;2022-08-14T07:36:05;3.63;;;2.97;;
15104;SDS011;7653;48.994;9.212;2022-08-14T07:38:34;4.47;;;3.10;;
15104;SDS011;7653;48.994;9.212;2022-08-14T07:41:00;3.03;;;2.73;;
15104;SDS011;7653;48.994;9.212;2022-08-14T07:43:26;4.33;;;2.73;;
15104;SDS011;7653;48.994;9.212;2022-08-14T07:45:52;3.80;;;2.70;;
15104;SDS011;7653;48.994;9.212;2022-08-14T07:48:21;3.43;;;3.13;;
15104;SDS011;7653;48.994;9.212;2022-08-14T07:50:54;3.97;;;2.67;;
15104;SDS011;7653;48.994;9.212;2022-08-14T07:53:20;2.70;;;2.50;;
15104;SDS011;7653;48.994;9.212;2022-08-14T07:55:46;2.70;;;2.50;;
15104;SDS011;7653;48.994;9.212;2022-08-14T07:58:12;2.90;;;2.67;;
15104;SDS011;7653;48.994;9.212;2022-08-14T08:00:38;4.90;;;2.67;;
15104;SDS011;7653;48.994;9.212;2022-08-14T08:03:07;6.23;;;2.30;;
15104;SDS011;7653;48.994;9.212;2022-08-14T08:05:34;2.87;;;2.20;;
15104;SDS011;7653;48.994;9.212;2022-08-14T08:08:01;4.43;;;2.50;;
15104;SDS011;7653;48.994;9.212;2022-08-14T08:10:28;2.50;;;2.30;;
15104;SDS011;7653;48.994;9.212;2022-08-14T08:15:31;3.30;;;2.20;;
15104;SDS011;7653;48.994;9.212;2022-08-14T08:18:03;2.67;;;2.30;;
15104;SDS011;7653;48.994;9.212;2022-08-14T08:20:31;2.33;;;2.13;;
15104;SDS011;7653;48.994;9.212;2022-08-14T08:23:10;2.30;;;2.10;;
15104;SDS011;7653;48.994;9.212;2022-08-14T08:25:37;3.00;;;2.70;;
15104;SDS011;7653;48.994;9.212;2022-08-14T08:30:37;2.93;;;2.33;;
15104;SDS011;7653;48.994;9.212;2022-08-14T08:33:05;2.80;;;2.50;;
15104;SDS011;7653;48.994;9.212;2022-08-14T08:35:33;3.80;;;2.30;;
15104;SDS011;7653;48.994;9.212;2022-08-14T08:38:04;3.10;;;2.23;;
15104;SDS011;7653;48.994;9.212;2022-08-14T08:43:05;2.83;;;2.20;;
15104;SDS011;7653;48.994;9.212;2022-08-14T08:45:35;4.37;;;2.50;;
15104;SDS011;7653;48.994;9.212;2022-08-14T08:48:02;3.03;;;2.30;;
15104;SDS011;7653;48.994;9.212;2022-08-14T08:50:38;2.83;;;2.13;;
15104;SDS011;7653;48.994;9.212;2022-08-14T08:53:04;3.33;;;2.50;;
15104;SDS011;7653;48.994;9.212;2022-08-14T08:58:06;2.70;;;2.50;;
15104;SDS011;7653;48.994;9.212;2022-08-14T09:00:35;2.50;;;2.23;;
15104;SDS011;7653;48.994;9.212;2022-08-14T09:05:30;3.33;;;2.30;;
15104;SDS011;7653;48.994;9.212;2022-08-14T09:10:41;2.93;;;2.50;;
15104;SDS011;7653;48.994;9.212;2022-08-14T09:13:11;4.67;;;2.27;;
15104;SDS011;7653;48.994;9.212;2022-08-14T09:15:50;2.33;;;2.13;;
15104;SDS011;7653;48.994;9.212;2022-08-14T09:18:18;2.50;;;2.30;;
15104;SDS011;7653;48.994;9.212;2022-08-14T09:20:48;3.17;;;2.13;;
15104;SDS011;7653;48.994;9.212;2022-08-14T09:23:17;5.53;;;2.33;;
15104;SDS011;7653;48.994;9.212;2022-08-14T09:25:45;6.03;;;2.50;;
15104;SDS011;7653;48.994;9.212;2022-08-14T09:28:14;2.43;;;2.20;;
15104;SDS011;7653;48.994;9.212;2022-08-14T09:30:48;2.27;;;1.97;;
15104;SDS011;7653;48.994;9.212;2022-08-14T09:36:29;3.97;;;2.00;;
15104;SDS011;7653;48.994;9.212;2022-08-14T09:45:04;2.97;;;2.17;;
15104;SDS011;7653;48.994;9.212;2022-08-14T09:50:18;2.90;;;2.08;;
15104;SDS011;7653;48.994;9.212;2022-08-14T09:52:54;3.53;;;2.00;;
15104;SDS011;7653;48.994;9.212;2022-08-14T09:55:27;7.70;;;2.33;;
15104;SDS011;7653;48.994;9.212;2022-08-14T10:00:50;2.67;;;2.10;;
15104;SDS011;7653;48.994;9.212;2022-08-14T10:03:28;2.63;;;2.00;;
15104;SDS011;7653;48.994;9.212;2022-08-14T10:06:08;3.75;;;2.30;;
15104;SDS011;7653;48.994;9.212;2022-08-14T10:08:50;3.20;;;2.17;;
15104;SDS011;7653;48.994;9.212;2022-08-14T10:11:18;2.35;;;2.15;;
15104;SDS011;7653;48.994;9.212;2022-08-14T10:13:48;2.35;;;2.15;;
15104;SDS011;7653;48.994;9.212;2022-08-14T10:16:18;2.42;;;2.20;;
15104;SDS011;7653;48.994;9.212;2022-08-14T10:18:48;2.65;;;2.45;;
15104;SDS011;7653;48.994;9.212;2022-08-14T10:21:25;2.10;;;1.90;;
15104;SDS011;7653;48.994;9.212;2022-08-14T10:23:53;3.92;;;2.25;;
15104;SDS011;7653;48.994;9.212;2022-08-14T10:26:19;2.35;;;2.15;;
15104;SDS011;7653;48.994;9.212;2022-08-14T10:29:09;2.85;;;1.90;;
15104;SDS011;7653;48.994;9.212;2022-08-14T10:31:38;3.70;;;2.53;;
15104;SDS011;7653;48.994;9.212;2022-08-14T10:36:34;2.35;;;2.15;;
15104;SDS011;7653;48.994;9.212;2022-08-14T10:39:26;2.72;;;2.53;;
15104;SDS011;7653;48.994;9.212;2022-08-14T10:44:35;3.58;;;2.72;;
15104;SDS011;7653;48.994;9.212;2022-08-14T10:47:12;2.80;;;2.53;;
15104;SDS011;7653;48.994;9.212;2022-08-14T10:50:34;3.95;;;2.67;;
15104;SDS011;7653;48.994;9.212;2022-08-14T10:53:29;2.92;;;2.50;;
15104;SDS011;7653;48.994;9.212;2022-08-14T10:56:10;3.85;;;2.25;;
15104;SDS011;7653;48.994;9.212;2022-08-14T10:58:37;3.97;;;2.70;;
15104;SDS011;7653;48.994;9.212;2022-08-14T11:01:03;4.03;;;2.45;;
15104;SDS011;7653;48.994;9.212;2022-08-14T11:03:41;3.42;;;2.60;;
15104;SDS011;7653;48.994;9.212;2022-08-14T11:06:14;3.70;;;2.22;;
15104;SDS011;7653;48.994;9.212;2022-08-14T11:08:46;2.97;;;2.50;;
15104;SDS011;7653;48.994;9.212;2022-08-14T11:11:13;3.28;;;2.40;;
15104;SDS011;7653;48.994;9.212;2022-08-14T11:13:43;3.38;;;2.40;;
15104;SDS011;7653;48.994;9.212;2022-08-14T11:16:14;2.88;;;2.50;;
15104;SDS011;7653;48.994;9.212;2022-08-14T11:18:50;2.88;;;2.65;;
15104;SDS011;7653;48.994;9.212;2022-08-14T11:21:19;2.85;;;2.30;;
15104;SDS011;7653;48.994;9.212;2022-08-14T11:24:01;2.60;;;2.40;;
15104;SDS011;7653;48.994;9.212;2022-08-14T11:26:30;2.78;;;2.58;;
15104;SDS011;7653;48.994;9.212;2022-08-14T11:28:58;2.58;;;2.38;;
15104;SDS011;7653;48.994;9.212;2022-08-14T11:31:25;2.70;;;2.50;;
15104;SDS011;7653;48.994;9.212;2022-08-14T11:33:56;2.78;;;2.35;;
15104;SDS011;7653;48.994;9.212;2022-08-14T11:36:35;2.55;;;2.35;;
15104;SDS011;7653;48.994;9.212;2022-08-14T11:39:22;2.60;;;2.40;;
15104;SDS011;7653;48.994;9.212;2022-08-14T11:41:48;3.28;;;2.60;;
15104;SDS011;7653;48.994;9.212;2022-08-14T11:44:22;2.90;;;2.70;;
15104;SDS011;7653;48.994;9.212;2022-08-14T11:46:50;3.28;;;2.40;;
15104;SDS011;7653;48.994;9.212;2022-08-14T11:49:26;2.75;;;2.55;;
15104;SDS011;7653;48.994;9.212;2022-08-14T11:51:57;2.78;;;2.58;;
15104;SDS011;7653;48.994;9.212;2022-08-14T11:54:23;3.00;;;2.75;;
15104;SDS011;7653;48.994;9.212;2022-08-14T11:56:49;2.80;;;2.60;;
15104;SDS011;7653;48.994;9.212;2022-08-14T11:59:17;2.90;;;2.50;;
15104;SDS011;7653;48.994;9.212;2022-08-14T12:01:47;4.32;;;2.83;;
15104;SDS011;7653;48.994;9.212;2022-08-14T12:04:16;3.40;;;2.75;;
15104;SDS011;7653;48.994;9.212;2022-08-14T12:06:47;3.25;;;2.88;;
15104;SDS011;7653;48.994;9.212;2022-08-14T12:09:35;2.78;;;2.58;;
15104;SDS011;7653;48.994;9.212;2022-08-14T12:12:21;3.45;;;2.63;;
15104;SDS011;7653;48.994;9.212;2022-08-14T12:14:56;2.80;;;2.53;;
15104;SDS011;7653;48.994;9.212;2022-08-14T12:17:28;6.22;;;2.80;;
15104;SDS011;7653;48.994;9.212;2022-08-14T12:20:03;4.13;;;2.30;;
15104;SDS011;7653;48.994;9.212;2022-08-14T12:22:37;2.75;;;2.55;;
15104;SDS011;7653;48.994;9.212;2022-08-14T12:25:08;3.60;;;2.88;;
15104;SDS011;7653;48.994;9.212;2022-08-14T12:30:07;3.90;;;2.70;;
15104;SDS011;7653;48.994;9.212;2022-08-14T12:32:53;2.85;;;2.65;;
15104;SDS011;7653;48.994;9.212;2022-08-14T12:35:20;3.08;;;2.80;;
15104;SDS011;7653;48.994;9.212;2022-08-14T12:37:50;2.80;;;2.60;;
15104;SDS011;7653;48.994;9.212;2022-08-14T12:40:19;2.72;;;2.33;;
15104;SDS011;7653;48.994;9.212;2022-08-14T12:42:49;2.63;;;2.42;;
15104;SDS011;7653;48.994;9.212;2022-08-14T12:45:27;3.35;;;2.72;;
15104;SDS011;7653;48.994;9.212;2022-08-14T12:47:58;4.03;;;2.45;;
15104;SDS011;7653;48.994;9.212;2022-08-14T12:50:38;2.92;;;2.47;;
15104;SDS011;7653;48.994;9.212;2022-08-14T12:53:06;3.72;;;2.55;;
15104;SDS011;7653;48.994;9.212;2022-08-14T12:55:34;3.45;;;2.60;;
15104;SDS011;7653;48.994;9.212;2022-08-14T12:58:03;2.60;;;2.40;;
15104;SDS011;7653;48.994;9.212;2022-08-14T13:00:47;2.38;;;2.28;;
15104;SDS011;7653;48.994;9.212;2022-08-14T13:03:23;2.75;;;2.55;;
15104;SDS011;7653;48.994;9.212;2022-08-14T13:05:59;8.27;;;2.47;;
15104;SDS011;7653;48.994;9.212;2022-08-14T13:08:25;2.45;;;2.25;;
15104;SDS011;7653;48.994;9.212;2022-08-14T13:10:51;2.50;;;2.30;;
15104;SDS011;7653;48.994;9.212;2022-08-14T13:13:19;2.70;;;2.08;;
15104;SDS011;7653;48.994;9.212;2022-08-14T13:15:46;3.13;;;2.40;;
15104;SDS011;7653;48.994;9.212;2022-08-14T13:18:16;4.13;;;2.20;;
15104;SDS011;7653;48.994;9.212;2022-08-14T13:20:43;3.10;;;2.50;;
15104;SDS011;7653;48.994;9.212;2022-08-14T13:23:12;4.80;;;2.65;;
15104;SDS011;7653;48.994;9.212;2022-08-14T13:25:39;2.92;;;2.20;;
15104;SDS011;7653;48.994;9.212;2022-08-14T13:28:08;3.47;;;2.58;;
15104;SDS011;7653;48.994;9.212;2022-08-14T13:30:36;2.85;;;2.65;;
15104;SDS011;7653;48.994;9.212;2022-08-14T13:33:05;2.85;;;2.55;;
15104;SDS011;7653;48.994;9.212;2022-08-14T13:35:31;3.80;;;2.58;;
15104;SDS011;7653;48.994;9.212;2022-08-14T13:37:57;2.60;;;2.40;;
15104;SDS011;7653;48.994;9.212;2022-08-14T13:40:23;2.83;;;2.17;;
15104;SDS011;7653;48.994;9.212;2022-08-14T13:42:49;3.03;;;2.72;;
15104;SDS011;7653;48.994;9.212;2022-08-14T13:45:19;2.60;;;2.40;;
15104;SDS011;7653;48.994;9.212;2022-08-14T13:47:46;2.80;;;2.10;;
15104;SDS011;7653;48.994;9.212;2022-08-14T13:50:13;2.83;;;2.40;;
15104;SDS011;7653;48.994;9.212;2022-08-14T13:52:45;2.60;;;2.40;;
15104;SDS011;7653;48.994;9.212;2022-08-14T13:55:20;2.63;;;2.15;;
15104;SDS011;7653;48.994;9.212;2022-08-14T13:57:51;2.85;;;2.38;;
15104;SDS011;7653;48.994;9.212;2022-08-14T14:00:24;2.45;;;2.25;;
15104;SDS011;7653;48.994;9.212;2022-08-14T14:02:53;2.78;;;2.58;;
15104;SDS011;7653;48.994;9.212;2022-08-14T14:05:21;3.67;;;2.45;;
15104;SDS011;7653;48.994;9.212;2022-08-14T14:07:50;2.92;;;2.40;;
15104;SDS011;7653;48.994;9.212;2022-08-14T14:10:28;3.35;;;2.50;;
15104;SDS011;7653;48.994;9.212;2022-08-14T14:12:59;2.50;;;2.30;;
15104;SDS011;7653;48.994;9.212;2022-08-14T14:15:26;2.85;;;2.40;;
15104;SDS011;7653;48.994;9.212;2022-08-14T14:17:51;2.30;;;2.10;;
15104;SDS011;7653;48.994;9.212;2022-08-14T14:20:18;3.15;;;2.40;;
15104;SDS011;7653;48.994;9.212;2022-08-14T14:22:45;3.10;;;2.20;;
15104;SDS011;7653;48.994;9.212;2022-08-14T14:25:16;2.42;;;2.08;;
15104;SDS011;7653;48.994;9.212;2022-08-14T14:27:44;2.70;;;2.30;;
15104;SDS011;7653;48.994;9.212;2022-08-14T14:30:11;3.55;;;2.20;;
15104;SDS011;7653;48.994;9.212;2022-08-14T14:32:41;3.20;;;2.30;;
15104;SDS011;7653;48.994;9.212;2022-08-14T14:35:13;2.40;;;2.20;;
15104;SDS011;7653;48.994;9.212;2022-08-14T14:37:40;2.67;;;2.28;;
15104;SDS011;7653;48.994;9.212;2022-08-14T14:40:10;2.17;;;1.92;;
15104;SDS011;7653;48.994;9.212;2022-08-14T14:42:48;2.13;;;1.90;;
15104;SDS011;7653;48.994;9.212;2022-08-14T14:45:18;2.05;;;1.90;;
15104;SDS011;7653;48.994;9.212;2022-08-14T14:47:53;3.42;;;2.35;;
15104;SDS011;7653;48.994;9.212;2022-08-14T14:50:20;3.05;;;2.20;;
15104;SDS011;7653;48.994;9.212;2022-08-14T14:52:47;2.33;;;2.17;;
15104;SDS011;7653;48.994;9.212;2022-08-14T14:55:14;2.30;;;2.10;;
15104;SDS011;7653;48.994;9.212;2022-08-14T14:57:41;2.47;;;2.17;;
15104;SDS011;7653;48.994;9.212;2022-08-14T15:00:08;3.10;;;2.40;;
15104;SDS011;7653;48.994;9.212;2022-08-14T15:02:54;2.20;;;2.00;;
15104;SDS011;7653;48.994;9.212;2022-08-14T15:05:21;3.95;;;2.28;;
15104;SDS011;7653;48.994;9.212;2022-08-14T15:07:50;2.42;;;2.13;;
15104;SDS011;7653;48.994;9.212;2022-08-14T15:10:21;8.57;;;2.30;;
15104;SDS011;7653;48.994;9.212;2022-08-14T15:12:47;2.55;;;2.20;;
15104;SDS011;7653;48.994;9.212;2022-08-14T15:15:12;2.67;;;2.30;;
15104;SDS011;7653;48.994;9.212;2022-08-14T15:17:39;2.65;;;2.10;;
15104;SDS011;7653;48.994;9.212;2022-08-14T15:20:06;2.78;;;1.95;;
15104;SDS011;7653;48.994;9.212;2022-08-14T15:22:41;2.53;;;2.00;;
15104;SDS011;7653;48.994;9.212;2022-08-14T15:25:07;4.22;;;1.95;;
15104;SDS011;7653;48.994;9.212;2022-08-14T15:27:35;2.45;;;2.15;;
15104;SDS011;7653;48.994;9.212;2022-08-14T15:30:02;2.60;;;2.20;;
15104;SDS011;7653;48.994;9.212;2022-08-14T15:32:30;2.28;;;2.08;;
15104;SDS011;7653;48.994;9.212;2022-08-14T15:34:56;2.05;;;1.90;;
15104;SDS011;7653;48.994;9.212;2022-08-14T15:37:22;2.47;;;2.03;;
15104;SDS011;7653;48.994;9.212;2022-08-14T15:39:47;2.88;;;2.13;;
15104;SDS011;7653;48.994;9.212;2022-08-14T15:42:13;2.80;;;2.20;;
15104;SDS011;7653;48.994;9.212;2022-08-14T15:44:40;2.30;;;1.75;;
15104;SDS011;7653;48.994;9.212;2022-08-14T15:47:06;2.20;;;1.75;;
15104;SDS011;7653;48.994;9.212;2022-08-14T15:49:33;2.10;;;1.80;;
15104;SDS011;7653;48.994;9.212;2022-08-14T15:52:01;2.20;;;2.00;;
15104;SDS011;7653;48.994;9.212;2022-08-14T15:54:28;2.00;;;1.85;;
15104;SDS011;7653;48.994;9.212;2022-08-14T15:57:03;3.90;;;1.85;;
15104;SDS011;7653;48.994;9.212;2022-08-14T15:59:35;1.98;;;1.63;;
15104;SDS011;7653;48.994;9.212;2022-08-14T16:02:20;2.00;;;1.90;;
15104;SDS011;7653;48.994;9.212;2022-08-14T16:04:56;2.10;;;1.90;;
15104;SDS011;7653;48.994;9.212;2022-08-14T16:07:22;2.00;;;1.90;;
15104;SDS011;7653;48.994;9.212;2022-08-14T16:10:00;3.85;;;2.00;;